CCARS SCIE-SCOV
Flight info
| Callsign | CCARS |
|---|---|
| Flight time | 1h 25m |
| Altitude | 16000 |
| Route | ESIDO3J ESIDO T104 UPUSI T105 AKPOK/N0254F150 DCT EDRON |
| Aircraft | C160/M-SDFGHIRTUY/S |
Departure
| Time | 2026-05-09 16:05 |
|---|---|
| Airport | Carriel Sur International Airport (SCIE) |
Arrival
| Time | 2026-05-09 17:30 |
|---|---|
| Airport | El Tuqui Airport (SCOV) |
| Time | Latitude | Longitude | Altitude | Speed | Heading |
|---|---|---|---|---|---|
| 2026-05-09 15:45 | -36.77687 | -73.06259 | 59 ft | 0 kts | 160° |
| 2026-05-09 15:59 | -36.77696 | -73.06258 | 55 ft | 3 kts | 182° |
| 2026-05-09 15:59 | -36.77711 | -73.06285 | 53 ft | 6 kts | 259° |
| 2026-05-09 15:59 | -36.77680 | -73.06314 | 55 ft | 8 kts | 16° |
| 2026-05-09 15:59 | -36.77606 | -73.06271 | 55 ft | 15 kts | 24° |
| 2026-05-09 16:00 | -36.77501 | -73.06215 | 59 ft | 19 kts | 22° |
| 2026-05-09 16:00 | -36.77409 | -73.06167 | 53 ft | 23 kts | 23° |
| 2026-05-09 16:00 | -36.77229 | -73.06055 | 55 ft | 26 kts | 24° |
| 2026-05-09 16:00 | -36.77108 | -73.05985 | 59 ft | 20 kts | 25° |
| 2026-05-09 16:01 | -36.76960 | -73.05899 | 54 ft | 27 kts | 25° |
| 2026-05-09 16:01 | -36.76775 | -73.05792 | 59 ft | 28 kts | 25° |
| 2026-05-09 16:01 | -36.76602 | -73.05690 | 59 ft | 29 kts | 26° |
| 2026-05-09 16:01 | -36.76456 | -73.05605 | 56 ft | 18 kts | 26° |
| 2026-05-09 16:02 | -36.76375 | -73.05594 | 57 ft | 9 kts | 332° |
| 2026-05-09 16:02 | -36.76332 | -73.05669 | 56 ft | 5 kts | 298° |
| 2026-05-09 16:02 | -36.76311 | -73.05719 | 60 ft | 8 kts | 298° |
| 2026-05-09 16:03 | -36.76306 | -73.05769 | 57 ft | 4 kts | 213° |
| 2026-05-09 16:03 | -36.76314 | -73.05773 | 58 ft | 0 kts | 203° |
| 2026-05-09 16:04 | -36.76399 | -73.05822 | 61 ft | 42 kts | 205° |
| 2026-05-09 16:04 | -36.76836 | -73.06075 | 63 ft | 94 kts | 204° |
| 2026-05-09 16:04 | -36.77532 | -73.06483 | 128 ft | 122 kts | 199° |
| 2026-05-09 16:04 | -36.78356 | -73.06967 | 332 ft | 139 kts | 199° |
| 2026-05-09 16:05 | -36.79249 | -73.07487 | 734 ft | 146 kts | 203° |
| 2026-05-09 16:05 | -36.80174 | -73.08064 | 1167 ft | 151 kts | 203° |
| 2026-05-09 16:05 | -36.81139 | -73.08697 | 1576 ft | 163 kts | 202° |
| 2026-05-09 16:05 | -36.82158 | -73.09410 | 2008 ft | 171 kts | 202° |
| 2026-05-09 16:06 | -36.83110 | -73.10380 | 2433 ft | 190 kts | 231° |
| 2026-05-09 16:06 | -36.83210 | -73.12106 | 2900 ft | 218 kts | 284° |
| 2026-05-09 16:06 | -36.82199 | -73.13510 | 3356 ft | 227 kts | 334° |
| 2026-05-09 16:06 | -36.80672 | -73.13720 | 3800 ft | 220 kts | 12° |
| 2026-05-09 16:07 | -36.79165 | -73.13435 | 4261 ft | 220 kts | 12° |
| 2026-05-09 16:07 | -36.77631 | -73.13503 | 4724 ft | 224 kts | 350° |
| 2026-05-09 16:07 | -36.76147 | -73.14112 | 5200 ft | 225 kts | 338° |
| 2026-05-09 16:07 | -36.74806 | -73.15096 | 5637 ft | 224 kts | 325° |
| 2026-05-09 16:08 | -36.73529 | -73.16208 | 6086 ft | 222 kts | 324° |
| 2026-05-09 16:08 | -36.72217 | -73.17222 | 6535 ft | 221 kts | 332° |
| 2026-05-09 16:08 | -36.70740 | -73.17627 | 6954 ft | 218 kts | 3° |
| 2026-05-09 16:08 | -36.69246 | -73.17445 | 7382 ft | 215 kts | 13° |
| 2026-05-09 16:09 | -36.67804 | -73.17062 | 7812 ft | 214 kts | 18° |
| 2026-05-09 16:09 | -36.66388 | -73.16528 | 8260 ft | 211 kts | 25° |
| 2026-05-09 16:09 | -36.65024 | -73.15851 | 8710 ft | 211 kts | 27° |
| 2026-05-09 16:09 | -36.63657 | -73.15187 | 9169 ft | 211 kts | 26° |
| 2026-05-09 16:10 | -36.62279 | -73.14563 | 9628 ft | 211 kts | 26° |
| 2026-05-09 16:10 | -36.60902 | -73.13935 | 10100 ft | 210 kts | 26° |
| 2026-05-09 16:10 | -36.59530 | -73.13295 | 10522 ft | 210 kts | 27° |
| 2026-05-09 16:10 | -36.58166 | -73.12656 | 10942 ft | 210 kts | 27° |
| 2026-05-09 16:11 | -36.56797 | -73.12022 | 11384 ft | 210 kts | 27° |
| 2026-05-09 16:11 | -36.55429 | -73.11389 | 11821 ft | 210 kts | 27° |
| 2026-05-09 16:11 | -36.54061 | -73.10756 | 12264 ft | 210 kts | 28° |
| 2026-05-09 16:11 | -36.52712 | -73.10131 | 12704 ft | 209 kts | 28° |
| 2026-05-09 16:12 | -36.51338 | -73.09489 | 13097 ft | 213 kts | 28° |
| 2026-05-09 16:12 | -36.49937 | -73.08836 | 13483 ft | 217 kts | 28° |
| 2026-05-09 16:12 | -36.48511 | -73.08179 | 13870 ft | 220 kts | 28° |
| 2026-05-09 16:12 | -36.47065 | -73.07512 | 14231 ft | 223 kts | 28° |
| 2026-05-09 16:13 | -36.45603 | -73.06830 | 14579 ft | 226 kts | 28° |
| 2026-05-09 16:13 | -36.44124 | -73.06143 | 14934 ft | 228 kts | 27° |
| 2026-05-09 16:13 | -36.42625 | -73.05454 | 15285 ft | 230 kts | 27° |
| 2026-05-09 16:13 | -36.41114 | -73.04757 | 15632 ft | 233 kts | 27° |
| 2026-05-09 16:14 | -36.39565 | -73.04036 | 15831 ft | 244 kts | 27° |
| 2026-05-09 16:14 | -36.37924 | -73.03275 | 15921 ft | 259 kts | 26° |
| 2026-05-09 16:14 | -36.36189 | -73.02478 | 15958 ft | 272 kts | 26° |
| 2026-05-09 16:14 | -36.34376 | -73.01645 | 15979 ft | 283 kts | 25° |
| 2026-05-09 16:15 | -36.32561 | -73.00807 | 15991 ft | 292 kts | 25° |
| 2026-05-09 16:15 | -36.30633 | -72.99917 | 15992 ft | 298 kts | 25° |
| 2026-05-09 16:15 | -36.28666 | -72.99012 | 15981 ft | 303 kts | 25° |
| 2026-05-09 16:15 | -36.26679 | -72.98096 | 15986 ft | 306 kts | 25° |
| 2026-05-09 16:16 | -36.24673 | -72.97171 | 15994 ft | 309 kts | 25° |
| 2026-05-09 16:16 | -36.22675 | -72.96251 | 15994 ft | 310 kts | 25° |
| 2026-05-09 16:16 | -36.20650 | -72.95320 | 15980 ft | 312 kts | 25° |
| 2026-05-09 16:16 | -36.18609 | -72.94383 | 15981 ft | 312 kts | 25° |
| 2026-05-09 16:17 | -36.16569 | -72.93443 | 15982 ft | 313 kts | 25° |
| 2026-05-09 16:17 | -36.14525 | -72.92504 | 15979 ft | 314 kts | 25° |
| 2026-05-09 16:17 | -36.12472 | -72.91563 | 15982 ft | 314 kts | 25° |
| 2026-05-09 16:17 | -36.10421 | -72.90622 | 15976 ft | 315 kts | 25° |
| 2026-05-09 16:18 | -36.08364 | -72.89684 | 15701 ft | 318 kts | 23° |
| 2026-05-09 16:18 | -36.06404 | -72.88939 | 15960 ft | 279 kts | 26° |
| 2026-05-09 16:18 | -36.04666 | -72.88054 | 15972 ft | 263 kts | 30° |
| 2026-05-09 16:18 | -36.03006 | -72.87190 | 15976 ft | 256 kts | 27° |
| 2026-05-09 16:19 | -36.01345 | -72.86455 | 15971 ft | 251 kts | 25° |
| 2026-05-09 16:19 | -35.99711 | -72.85730 | 15983 ft | 248 kts | 26° |
| 2026-05-09 16:19 | -35.98101 | -72.84985 | 15968 ft | 246 kts | 26° |
| 2026-05-09 16:19 | -35.96505 | -72.84245 | 15979 ft | 245 kts | 26° |
| 2026-05-09 16:20 | -35.94908 | -72.83520 | 15971 ft | 244 kts | 26° |
| 2026-05-09 16:20 | -35.93317 | -72.82797 | 15976 ft | 244 kts | 26° |
| 2026-05-09 16:20 | -35.91726 | -72.82070 | 15967 ft | 244 kts | 26° |
| 2026-05-09 16:20 | -35.90122 | -72.81335 | 15954 ft | 254 kts | 26° |
| 2026-05-09 16:21 | -35.88428 | -72.80559 | 15963 ft | 271 kts | 25° |
| 2026-05-09 16:21 | -35.86613 | -72.79736 | 15966 ft | 284 kts | 25° |
| 2026-05-09 16:21 | -35.84748 | -72.78891 | 15969 ft | 294 kts | 25° |
| 2026-05-09 16:21 | -35.82801 | -72.78004 | 15968 ft | 301 kts | 25° |
| 2026-05-09 16:22 | -35.80816 | -72.77102 | 15966 ft | 307 kts | 24° |
| 2026-05-09 16:22 | -35.78789 | -72.76210 | 15962 ft | 311 kts | 23° |
| 2026-05-09 16:22 | -35.76708 | -72.75426 | 15959 ft | 315 kts | 16° |
| 2026-05-09 16:22 | -35.74558 | -72.74844 | 15957 ft | 317 kts | 15° |
| 2026-05-09 16:23 | -35.72413 | -72.74208 | 15958 ft | 318 kts | 17° |
| 2026-05-09 16:23 | -35.70265 | -72.73546 | 15955 ft | 319 kts | 16° |
| 2026-05-09 16:23 | -35.68100 | -72.72915 | 15956 ft | 320 kts | 16° |
| 2026-05-09 16:23 | -35.65934 | -72.72276 | 15949 ft | 320 kts | 17° |
| 2026-05-09 16:24 | -35.63767 | -72.71626 | 15953 ft | 321 kts | 16° |
| 2026-05-09 16:24 | -35.61597 | -72.70982 | 15951 ft | 321 kts | 16° |
| 2026-05-09 16:24 | -35.59421 | -72.70341 | 15950 ft | 321 kts | 16° |
| 2026-05-09 16:24 | -35.57247 | -72.69695 | 15951 ft | 321 kts | 16° |
| 2026-05-09 16:25 | -35.55075 | -72.69051 | 15948 ft | 321 kts | 16° |
| 2026-05-09 16:25 | -35.53636 | -72.68625 | 15944 ft | 322 kts | 16° |
| 2026-05-09 16:25 | -35.50720 | -72.67763 | 15947 ft | 322 kts | 16° |
| 2026-05-09 16:25 | -35.48548 | -72.67120 | 15944 ft | 322 kts | 16° |
| 2026-05-09 16:26 | -35.46398 | -72.66485 | 15948 ft | 322 kts | 16° |
| 2026-05-09 16:26 | -35.44221 | -72.65841 | 15945 ft | 322 kts | 16° |
| 2026-05-09 16:26 | -35.42017 | -72.65191 | 15942 ft | 322 kts | 16° |
| 2026-05-09 16:26 | -35.39864 | -72.64556 | 15943 ft | 322 kts | 16° |
| 2026-05-09 16:27 | -35.37684 | -72.63912 | 15942 ft | 322 kts | 16° |
| 2026-05-09 16:27 | -35.35509 | -72.63270 | 15944 ft | 322 kts | 16° |
| 2026-05-09 16:27 | -35.33327 | -72.62629 | 15938 ft | 322 kts | 16° |
| 2026-05-09 16:27 | -35.31149 | -72.61987 | 15938 ft | 322 kts | 16° |
| 2026-05-09 16:28 | -35.28966 | -72.61344 | 15941 ft | 322 kts | 16° |
| 2026-05-09 16:28 | -35.26787 | -72.60703 | 15942 ft | 323 kts | 16° |
| 2026-05-09 16:28 | -35.24604 | -72.60063 | 15938 ft | 323 kts | 16° |
| 2026-05-09 16:28 | -35.22418 | -72.59420 | 15939 ft | 323 kts | 16° |
| 2026-05-09 16:29 | -35.20235 | -72.58778 | 15936 ft | 323 kts | 15° |
| 2026-05-09 16:29 | -35.18048 | -72.58136 | 15937 ft | 323 kts | 15° |
| 2026-05-09 16:29 | -35.15866 | -72.57497 | 15934 ft | 323 kts | 15° |
| 2026-05-09 16:29 | -35.13714 | -72.56866 | 15935 ft | 323 kts | 15° |
| 2026-05-09 16:30 | -35.11525 | -72.56224 | 15934 ft | 323 kts | 15° |
| 2026-05-09 16:30 | -35.09340 | -72.55584 | 15934 ft | 323 kts | 15° |
| 2026-05-09 16:30 | -35.07178 | -72.54952 | 15932 ft | 323 kts | 15° |
| 2026-05-09 16:30 | -35.04990 | -72.54313 | 15931 ft | 323 kts | 15° |
| 2026-05-09 16:31 | -35.02801 | -72.53672 | 15934 ft | 323 kts | 15° |
| 2026-05-09 16:31 | -35.00612 | -72.53031 | 15931 ft | 324 kts | 15° |
| 2026-05-09 16:31 | -34.99132 | -72.52600 | 15931 ft | 324 kts | 15° |
| 2026-05-09 16:31 | -34.96939 | -72.51961 | 15931 ft | 324 kts | 15° |
| 2026-05-09 16:32 | -34.94750 | -72.51320 | 15930 ft | 324 kts | 15° |
| 2026-05-09 16:32 | -34.92560 | -72.50681 | 15930 ft | 324 kts | 15° |
| 2026-05-09 16:32 | -34.90362 | -72.50043 | 15928 ft | 324 kts | 15° |
| 2026-05-09 16:32 | -34.88172 | -72.49405 | 15925 ft | 324 kts | 15° |
| 2026-05-09 16:33 | -34.85971 | -72.48763 | 15924 ft | 324 kts | 15° |
| 2026-05-09 16:33 | -34.83778 | -72.48124 | 15927 ft | 324 kts | 15° |
| 2026-05-09 16:33 | -34.81610 | -72.47495 | 15925 ft | 324 kts | 15° |
| 2026-05-09 16:33 | -34.79411 | -72.46855 | 15923 ft | 324 kts | 15° |
| 2026-05-09 16:34 | -34.77216 | -72.46217 | 15918 ft | 325 kts | 15° |
| 2026-05-09 16:34 | -34.75018 | -72.45579 | 15921 ft | 325 kts | 15° |
| 2026-05-09 16:34 | -34.72822 | -72.44942 | 15922 ft | 325 kts | 15° |
| 2026-05-09 16:34 | -34.70619 | -72.44304 | 15921 ft | 325 kts | 15° |
| 2026-05-09 16:35 | -34.68424 | -72.43667 | 15920 ft | 325 kts | 15° |
| 2026-05-09 16:35 | -34.66220 | -72.43028 | 15925 ft | 325 kts | 15° |
| 2026-05-09 16:35 | -34.64015 | -72.42391 | 15920 ft | 325 kts | 15° |
| 2026-05-09 16:35 | -34.61813 | -72.41754 | 15921 ft | 326 kts | 15° |
| 2026-05-09 16:36 | -34.59603 | -72.41114 | 15919 ft | 326 kts | 15° |
| 2026-05-09 16:36 | -34.53009 | -72.39210 | 15918 ft | 326 kts | 15° |
| 2026-05-09 16:37 | -34.50800 | -72.38571 | 15916 ft | 326 kts | 15° |
| 2026-05-09 16:37 | -34.48586 | -72.37931 | 15916 ft | 326 kts | 15° |
| 2026-05-09 16:37 | -34.46374 | -72.37297 | 15917 ft | 326 kts | 15° |
| 2026-05-09 16:37 | -34.44201 | -72.36670 | 15920 ft | 326 kts | 15° |
| 2026-05-09 16:38 | -34.41989 | -72.36032 | 15914 ft | 327 kts | 15° |
| 2026-05-09 16:38 | -34.39779 | -72.35395 | 15914 ft | 327 kts | 14° |
| 2026-05-09 16:38 | -34.37567 | -72.34760 | 15911 ft | 327 kts | 14° |
| 2026-05-09 16:38 | -34.35354 | -72.34124 | 15912 ft | 327 kts | 14° |
| 2026-05-09 16:39 | -34.33134 | -72.33486 | 15911 ft | 327 kts | 15° |
| 2026-05-09 16:39 | -34.30919 | -72.32848 | 15910 ft | 327 kts | 14° |
| 2026-05-09 16:39 | -34.28705 | -72.32214 | 15910 ft | 327 kts | 14° |
| 2026-05-09 16:39 | -34.26486 | -72.31578 | 15910 ft | 327 kts | 14° |
| 2026-05-09 16:40 | -34.24265 | -72.30941 | 15909 ft | 327 kts | 14° |
| 2026-05-09 16:40 | -34.22047 | -72.30304 | 15907 ft | 328 kts | 14° |
| 2026-05-09 16:42 | -34.06530 | -72.25868 | 15901 ft | 328 kts | 14° |
| 2026-05-09 16:42 | -34.04302 | -72.25231 | 15902 ft | 329 kts | 14° |
| 2026-05-09 16:42 | -34.02075 | -72.24598 | 15902 ft | 329 kts | 14° |
| 2026-05-09 16:42 | -33.99852 | -72.23965 | 15902 ft | 329 kts | 14° |
| 2026-05-09 16:43 | -33.97626 | -72.23329 | 15901 ft | 329 kts | 14° |
| 2026-05-09 16:43 | -33.95427 | -72.22702 | 15901 ft | 329 kts | 14° |
| 2026-05-09 16:43 | -33.93195 | -72.22069 | 15901 ft | 329 kts | 14° |
| 2026-05-09 16:43 | -33.90967 | -72.21436 | 15898 ft | 329 kts | 14° |
| 2026-05-09 16:44 | -33.88739 | -72.20801 | 15897 ft | 329 kts | 14° |
| 2026-05-09 16:44 | -33.86512 | -72.20167 | 15897 ft | 329 kts | 14° |
| 2026-05-09 16:44 | -33.84278 | -72.19535 | 15899 ft | 329 kts | 14° |
| 2026-05-09 16:44 | -33.82042 | -72.18900 | 15894 ft | 329 kts | 14° |
| 2026-05-09 16:45 | -33.79809 | -72.18266 | 15899 ft | 329 kts | 14° |
| 2026-05-09 16:45 | -33.77579 | -72.17633 | 15896 ft | 329 kts | 14° |
| 2026-05-09 16:45 | -33.75347 | -72.17000 | 15893 ft | 330 kts | 14° |
| 2026-05-09 16:45 | -33.73156 | -72.16342 | 15891 ft | 330 kts | 15° |
| 2026-05-09 16:46 | -33.70921 | -72.15745 | 15893 ft | 330 kts | 9° |
| 2026-05-09 16:46 | -33.68651 | -72.15328 | 15893 ft | 330 kts | 8° |
| 2026-05-09 16:46 | -33.66417 | -72.14863 | 15893 ft | 330 kts | 11° |
| 2026-05-09 16:46 | -33.64158 | -72.14376 | 15889 ft | 330 kts | 9° |
| 2026-05-09 16:47 | -33.61892 | -72.13918 | 15889 ft | 330 kts | 9° |
| 2026-05-09 16:47 | -33.59626 | -72.13452 | 15890 ft | 330 kts | 9° |
| 2026-05-09 16:47 | -33.57358 | -72.12978 | 15891 ft | 331 kts | 9° |
| 2026-05-09 16:47 | -33.55089 | -72.12511 | 15891 ft | 331 kts | 9° |
| 2026-05-09 16:48 | -33.52823 | -72.12045 | 15892 ft | 331 kts | 9° |
| 2026-05-09 16:48 | -33.50550 | -72.11574 | 15890 ft | 331 kts | 9° |
| 2026-05-09 16:48 | -33.48281 | -72.11107 | 15886 ft | 331 kts | 9° |
| 2026-05-09 16:48 | -33.46006 | -72.10639 | 15886 ft | 331 kts | 9° |
| 2026-05-09 16:49 | -33.43737 | -72.10171 | 15885 ft | 331 kts | 9° |
| 2026-05-09 16:49 | -33.41462 | -72.09701 | 15882 ft | 331 kts | 9° |
| 2026-05-09 16:49 | -33.39220 | -72.09242 | 15881 ft | 331 kts | 9° |
| 2026-05-09 16:50 | -33.34668 | -72.08305 | 15879 ft | 331 kts | 9° |
| 2026-05-09 16:50 | -33.32395 | -72.07837 | 15882 ft | 331 kts | 9° |
| 2026-05-09 16:50 | -33.30121 | -72.07372 | 15879 ft | 331 kts | 9° |
| 2026-05-09 16:50 | -33.27848 | -72.06906 | 15880 ft | 331 kts | 9° |
| 2026-05-09 16:51 | -33.25576 | -72.06439 | 15878 ft | 331 kts | 9° |
| 2026-05-09 16:51 | -33.23304 | -72.05973 | 15877 ft | 331 kts | 9° |
| 2026-05-09 16:51 | -33.21030 | -72.05508 | 15872 ft | 332 kts | 9° |
| 2026-05-09 16:51 | -33.18756 | -72.05042 | 15874 ft | 332 kts | 9° |
| 2026-05-09 16:52 | -33.16480 | -72.04576 | 15878 ft | 332 kts | 9° |
| 2026-05-09 16:52 | -33.14204 | -72.04109 | 15874 ft | 332 kts | 9° |
| 2026-05-09 16:52 | -33.11931 | -72.03647 | 15876 ft | 332 kts | 9° |
| 2026-05-09 16:52 | -33.09676 | -72.03185 | 15873 ft | 332 kts | 9° |
| 2026-05-09 16:53 | -33.07394 | -72.02719 | 15877 ft | 332 kts | 9° |
| 2026-05-09 16:53 | -33.05119 | -72.02254 | 15876 ft | 332 kts | 9° |
| 2026-05-09 16:53 | -33.02896 | -72.01802 | 15870 ft | 332 kts | 9° |
| 2026-05-09 16:53 | -33.00614 | -72.01336 | 15870 ft | 332 kts | 9° |
| 2026-05-09 16:54 | -32.98339 | -72.00872 | 15867 ft | 332 kts | 9° |
| 2026-05-09 16:54 | -32.96092 | -72.00414 | 15869 ft | 332 kts | 9° |
| 2026-05-09 16:54 | -32.93819 | -71.99952 | 15871 ft | 332 kts | 9° |
| 2026-05-09 16:54 | -32.91543 | -71.99489 | 15868 ft | 332 kts | 9° |
| 2026-05-09 16:55 | -32.89268 | -71.99025 | 15863 ft | 332 kts | 9° |
| 2026-05-09 16:55 | -32.86990 | -71.98562 | 15867 ft | 332 kts | 9° |
| 2026-05-09 16:55 | -32.84715 | -71.98102 | 15868 ft | 332 kts | 9° |
| 2026-05-09 16:55 | -32.82440 | -71.97640 | 15866 ft | 332 kts | 9° |
| 2026-05-09 16:56 | -32.80165 | -71.97178 | 15864 ft | 332 kts | 9° |
| 2026-05-09 16:56 | -32.77893 | -71.96718 | 15864 ft | 332 kts | 9° |
| 2026-05-09 16:56 | -32.75618 | -71.96257 | 15862 ft | 332 kts | 9° |
| 2026-05-09 16:56 | -32.73329 | -71.95794 | 15866 ft | 332 kts | 9° |
| 2026-05-09 16:57 | -32.71083 | -71.95340 | 15858 ft | 332 kts | 9° |
| 2026-05-09 16:57 | -32.68805 | -71.94878 | 15865 ft | 332 kts | 9° |
| 2026-05-09 16:57 | -32.66529 | -71.94419 | 15862 ft | 332 kts | 9° |
| 2026-05-09 16:57 | -32.64250 | -71.93960 | 15862 ft | 332 kts | 9° |
| 2026-05-09 16:58 | -32.61972 | -71.93498 | 15863 ft | 332 kts | 9° |
| 2026-05-09 16:58 | -32.59692 | -71.93038 | 15861 ft | 332 kts | 8° |
| 2026-05-09 16:58 | -32.57417 | -71.92580 | 15865 ft | 332 kts | 9° |
| 2026-05-09 16:58 | -32.55138 | -71.92120 | 15861 ft | 332 kts | 9° |
| 2026-05-09 16:59 | -32.52860 | -71.91661 | 15858 ft | 332 kts | 9° |
| 2026-05-09 16:59 | -32.50583 | -71.91202 | 15860 ft | 332 kts | 8° |
| 2026-05-09 16:59 | -32.48310 | -71.90746 | 15860 ft | 332 kts | 8° |
| 2026-05-09 16:59 | -32.46030 | -71.90287 | 15861 ft | 332 kts | 9° |
| 2026-05-09 17:00 | -32.43752 | -71.89828 | 15863 ft | 332 kts | 9° |
| 2026-05-09 17:00 | -32.41478 | -71.89370 | 15864 ft | 332 kts | 8° |
| 2026-05-09 17:00 | -32.39192 | -71.88913 | 15861 ft | 332 kts | 8° |
| 2026-05-09 17:00 | -32.36969 | -71.88467 | 15859 ft | 332 kts | 9° |
| 2026-05-09 17:01 | -32.34685 | -71.88008 | 15860 ft | 332 kts | 9° |
| 2026-05-09 17:01 | -32.32409 | -71.87550 | 15864 ft | 332 kts | 8° |
| 2026-05-09 17:01 | -32.30161 | -71.87101 | 15861 ft | 332 kts | 8° |
| 2026-05-09 17:01 | -32.27883 | -71.86645 | 15858 ft | 332 kts | 8° |
| 2026-05-09 17:02 | -32.25608 | -71.86189 | 15856 ft | 332 kts | 8° |
| 2026-05-09 17:02 | -32.23325 | -71.85732 | 15858 ft | 332 kts | 8° |
| 2026-05-09 17:02 | -32.21044 | -71.85275 | 15858 ft | 332 kts | 8° |
| 2026-05-09 17:02 | -32.18763 | -71.84819 | 15860 ft | 332 kts | 8° |
| 2026-05-09 17:03 | -32.16486 | -71.84364 | 15866 ft | 331 kts | 8° |
| 2026-05-09 17:04 | -32.00587 | -71.81191 | 15859 ft | 330 kts | 9° |
| 2026-05-09 17:05 | -31.98323 | -71.80742 | 15859 ft | 330 kts | 9° |
| 2026-05-09 17:05 | -31.96057 | -71.80291 | 15856 ft | 330 kts | 9° |
| 2026-05-09 17:05 | -31.93817 | -71.79844 | 15857 ft | 329 kts | 9° |
| 2026-05-09 17:05 | -31.91552 | -71.79394 | 15856 ft | 329 kts | 9° |
| 2026-05-09 17:06 | -31.89294 | -71.78946 | 15853 ft | 329 kts | 9° |
| 2026-05-09 17:06 | -31.87036 | -71.78498 | 15856 ft | 328 kts | 9° |
| 2026-05-09 17:06 | -31.84782 | -71.78049 | 15853 ft | 328 kts | 9° |
| 2026-05-09 17:06 | -31.82531 | -71.77603 | 15856 ft | 328 kts | 9° |
| 2026-05-09 17:07 | -31.80285 | -71.77157 | 15854 ft | 327 kts | 9° |
| 2026-05-09 17:07 | -31.78797 | -71.76863 | 15856 ft | 327 kts | 9° |
| 2026-05-09 17:07 | -31.75798 | -71.76269 | 15854 ft | 327 kts | 9° |
| 2026-05-09 17:07 | -31.73556 | -71.75824 | 15858 ft | 327 kts | 9° |
| 2026-05-09 17:08 | -31.71341 | -71.75386 | 15855 ft | 326 kts | 9° |
| 2026-05-09 17:08 | -31.66965 | -71.74054 | 15855 ft | 325 kts | 22° |
| 2026-05-09 17:08 | -31.64882 | -71.73043 | 15854 ft | 323 kts | 26° |
| 2026-05-09 17:09 | -31.62948 | -71.71802 | 15855 ft | 320 kts | 36° |
| 2026-05-09 17:09 | -31.61051 | -71.70429 | 15856 ft | 321 kts | 34° |
| 2026-05-09 17:09 | -31.59113 | -71.69127 | 15855 ft | 321 kts | 33° |
| 2026-05-09 17:09 | -31.57183 | -71.67819 | 15857 ft | 320 kts | 34° |
| 2026-05-09 17:10 | -31.55265 | -71.66491 | 15856 ft | 320 kts | 34° |
| 2026-05-09 17:10 | -31.53338 | -71.65177 | 15855 ft | 320 kts | 33° |
| 2026-05-09 17:10 | -31.51413 | -71.63867 | 15851 ft | 320 kts | 34° |
| 2026-05-09 17:10 | -31.49490 | -71.62551 | 15853 ft | 320 kts | 34° |
| 2026-05-09 17:11 | -31.47569 | -71.61239 | 15850 ft | 320 kts | 34° |
| 2026-05-09 17:11 | -31.45646 | -71.59929 | 15847 ft | 319 kts | 34° |
| 2026-05-09 17:11 | -31.43727 | -71.58620 | 15851 ft | 319 kts | 34° |
| 2026-05-09 17:11 | -31.41834 | -71.57330 | 15853 ft | 319 kts | 34° |
| 2026-05-09 17:12 | -31.39912 | -71.56020 | 15849 ft | 319 kts | 34° |
| 2026-05-09 17:12 | -31.38112 | -71.54796 | 15843 ft | 319 kts | 33° |
| 2026-05-09 17:12 | -31.36192 | -71.53491 | 15847 ft | 319 kts | 34° |
| 2026-05-09 17:12 | -31.34284 | -71.52191 | 15921 ft | 316 kts | 34° |
| 2026-05-09 17:13 | -31.32388 | -71.50902 | 15967 ft | 315 kts | 33° |
| 2026-05-09 17:13 | -31.30491 | -71.49614 | 15989 ft | 316 kts | 33° |
| 2026-05-09 17:13 | -31.28585 | -71.48317 | 15995 ft | 317 kts | 34° |
| 2026-05-09 17:13 | -31.26670 | -71.47018 | 15999 ft | 318 kts | 33° |
| 2026-05-09 17:14 | -31.24754 | -71.45721 | 15995 ft | 318 kts | 33° |
| 2026-05-09 17:14 | -31.22835 | -71.44420 | 15998 ft | 318 kts | 34° |
| 2026-05-09 17:14 | -31.20919 | -71.43122 | 15999 ft | 319 kts | 34° |
| 2026-05-09 17:14 | -31.19005 | -71.41817 | 15993 ft | 319 kts | 34° |
| 2026-05-09 17:15 | -31.17083 | -71.40520 | 15994 ft | 319 kts | 33° |
| 2026-05-09 17:15 | -31.15161 | -71.39226 | 15907 ft | 321 kts | 33° |
| 2026-05-09 17:15 | -31.13197 | -71.37886 | 15513 ft | 332 kts | 33° |
| 2026-05-09 17:15 | -31.11210 | -71.36539 | 15123 ft | 335 kts | 33° |
| 2026-05-09 17:16 | -31.09182 | -71.35181 | 14735 ft | 335 kts | 33° |
| 2026-05-09 17:17 | -30.96419 | -71.26564 | 11958 ft | 258 kts | 32° |
| 2026-05-09 17:18 | -30.94883 | -71.25531 | 11561 ft | 252 kts | 32° |
| 2026-05-09 17:18 | -30.93380 | -71.24520 | 11163 ft | 247 kts | 32° |
| 2026-05-09 17:18 | -30.91893 | -71.23519 | 10692 ft | 246 kts | 31° |
| 2026-05-09 17:18 | -30.90423 | -71.22526 | 10326 ft | 240 kts | 31° |
| 2026-05-09 17:19 | -30.89009 | -71.21577 | 10140 ft | 228 kts | 31° |
| 2026-05-09 17:19 | -30.87674 | -71.20684 | 10062 ft | 216 kts | 31° |
| 2026-05-09 17:19 | -30.86376 | -71.19811 | 10019 ft | 216 kts | 30° |
| 2026-05-09 17:19 | -30.85069 | -71.18932 | 10003 ft | 217 kts | 30° |
| 2026-05-09 17:20 | -30.83761 | -71.18053 | 9993 ft | 217 kts | 31° |
| 2026-05-09 17:20 | -30.82890 | -71.17468 | 9989 ft | 218 kts | 30° |
| 2026-05-09 17:20 | -30.81157 | -71.16307 | 9977 ft | 217 kts | 30° |
| 2026-05-09 17:20 | -30.79685 | -71.15723 | 9482 ft | 232 kts | 10° |
| 2026-05-09 17:21 | -30.78041 | -71.15528 | 9001 ft | 241 kts | 3° |
| 2026-05-09 17:21 | -30.76900 | -71.15473 | 8669 ft | 243 kts | 1° |
| 2026-05-09 17:21 | -30.75291 | -71.15581 | 8173 ft | 222 kts | 354° |
| 2026-05-09 17:21 | -30.73808 | -71.15775 | 7709 ft | 208 kts | 354° |
| 2026-05-09 17:22 | -30.72404 | -71.15926 | 7220 ft | 198 kts | 355° |
| 2026-05-09 17:22 | -30.71070 | -71.16050 | 6770 ft | 192 kts | 355° |
| 2026-05-09 17:22 | -30.69749 | -71.16181 | 6316 ft | 189 kts | 354° |
| 2026-05-09 17:22 | -30.68452 | -71.16327 | 5854 ft | 186 kts | 354° |
| 2026-05-09 17:23 | -30.67167 | -71.16457 | 5359 ft | 185 kts | 355° |
| 2026-05-09 17:23 | -30.65886 | -71.16583 | 4864 ft | 185 kts | 355° |
| 2026-05-09 17:23 | -30.64594 | -71.16719 | 4446 ft | 188 kts | 355° |
| 2026-05-09 17:23 | -30.63294 | -71.16844 | 3991 ft | 188 kts | 354° |
| 2026-05-09 17:25 | -30.57150 | -71.17359 | 2516 ft | 156 kts | 8° |
| 2026-05-09 17:25 | -30.56240 | -71.16732 | 2658 ft | 155 kts | 49° |
| 2026-05-09 17:25 | -30.55701 | -71.15644 | 2771 ft | 158 kts | 64° |
| 2026-05-09 17:25 | -30.55222 | -71.14474 | 2860 ft | 165 kts | 65° |
| 2026-05-09 17:26 | -30.54724 | -71.13289 | 2868 ft | 156 kts | 64° |
| 2026-05-09 17:26 | -30.54260 | -71.12204 | 2861 ft | 146 kts | 64° |
| 2026-05-09 17:26 | -30.53810 | -71.11177 | 2767 ft | 143 kts | 63° |
| 2026-05-09 17:26 | -30.53094 | -71.10389 | 2652 ft | 139 kts | 23° |
| 2026-05-09 17:27 | -30.52207 | -71.10345 | 2607 ft | 129 kts | 336° |
| 2026-05-09 17:27 | -30.51673 | -71.11045 | 2748 ft | 118 kts | 283° |
| 2026-05-09 17:27 | -30.51734 | -71.12064 | 2469 ft | 132 kts | 252° |
| 2026-05-09 17:27 | -30.52045 | -71.12941 | 2183 ft | 116 kts | 244° |
| 2026-05-09 17:28 | -30.52460 | -71.13697 | 1976 ft | 104 kts | 233° |
| 2026-05-09 17:28 | -30.52934 | -71.14320 | 1772 ft | 100 kts | 227° |
| 2026-05-09 17:28 | -30.53405 | -71.14875 | 1676 ft | 94 kts | 224° |
| 2026-05-09 17:28 | -30.53863 | -71.15416 | 1574 ft | 93 kts | 225° |
| 2026-05-09 17:29 | -30.54327 | -71.15935 | 1477 ft | 94 kts | 224° |
| 2026-05-09 17:29 | -30.54812 | -71.16457 | 1363 ft | 95 kts | 223° |
| 2026-05-09 17:29 | -30.55307 | -71.16969 | 1206 ft | 94 kts | 222° |
| 2026-05-09 17:29 | -30.55767 | -71.17442 | 1147 ft | 69 kts | 221° |
| 2026-05-09 17:30 | -30.55981 | -71.17656 | 1145 ft | 30 kts | 221° |
| 2026-05-09 17:30 | -30.56136 | -71.17811 | 1145 ft | 22 kts | 220° |
| 2026-05-09 17:30 | -30.56213 | -71.17888 | 1145 ft | 10 kts | 221° |
| 2026-05-09 17:30 | -30.56245 | -71.17922 | 1146 ft | 3 kts | 221° |
| 2026-05-09 17:31 | -30.56257 | -71.17931 | 1146 ft | 2 kts | 200° |
| 2026-05-09 17:31 | -30.56272 | -71.17923 | 1148 ft | 1 kts | 137° |
| 2026-05-09 17:32 | -30.56294 | -71.17906 | 1147 ft | 0 kts | 212° |
| 2026-05-09 17:33 | -30.56297 | -71.17909 | 1147 ft | 0 kts | 217° |
| 2026-05-09 17:33 | -30.56297 | -71.17910 | 1147 ft | 0 kts | 220° |